createdAt,value
2023-09-03T00:00:32.796Z,3.50
2023-09-03T00:01:37.147Z,3.50
2023-09-03T00:02:41.444Z,3.00
2023-09-03T00:03:45.881Z,2.50
2023-09-03T00:04:50.229Z,3.25
2023-09-03T00:05:54.540Z,2.00
2023-09-03T00:06:58.738Z,3.00
2023-09-03T00:08:03.159Z,3.00
2023-09-03T00:09:07.560Z,3.00
2023-09-03T00:10:11.862Z,3.00
2023-09-03T00:11:17.712Z,3.00
2023-09-03T00:12:22.432Z,3.00
2023-09-03T00:13:26.862Z,2.50
2023-09-03T00:14:31.560Z,2.50
2023-09-03T00:15:35.864Z,2.00
2023-09-03T00:16:40.196Z,2.25
2023-09-03T00:17:44.794Z,2.50
2023-09-03T00:18:49.277Z,3.00
2023-09-03T00:19:53.717Z,3.00
2023-09-03T00:20:58.278Z,2.50
2023-09-03T00:22:02.778Z,2.00
2023-09-03T00:23:07.271Z,2.50
2023-09-03T00:24:11.870Z,2.50
2023-09-03T00:25:16.325Z,3.50
2023-09-03T00:26:20.687Z,3.00
2023-09-03T00:27:25.005Z,2.75
2023-09-03T00:28:29.624Z,2.25
2023-09-03T00:29:33.908Z,2.50
2023-09-03T00:30:38.387Z,1.50
2023-09-03T00:31:42.666Z,1.50
2023-09-03T00:32:47.096Z,1.50
2023-09-03T00:33:51.555Z,1.50
2023-09-03T00:34:55.957Z,2.00
2023-09-03T00:35:59.959Z,2.00
2023-09-03T00:37:04.290Z,0.75
2023-09-03T00:38:08.797Z,1.00
2023-09-03T00:39:13.318Z,1.25
2023-09-03T00:40:17.801Z,1.50
2023-09-03T00:41:22.035Z,1.75
2023-09-03T00:42:26.442Z,1.75
2023-09-03T00:43:30.752Z,2.00
2023-09-03T00:44:35.489Z,2.50
2023-09-03T00:45:40.169Z,2.00
2023-09-03T00:46:44.595Z,2.25
2023-09-03T00:47:48.939Z,1.75
2023-09-03T00:48:53.220Z,2.50
2023-09-03T00:49:57.522Z,2.00
2023-09-03T00:51:01.626Z,2.00
2023-09-03T00:52:05.939Z,2.00
2023-09-03T00:53:10.141Z,1.50
2023-09-03T00:54:14.259Z,2.00
2023-09-03T00:55:18.316Z,1.50
2023-09-03T00:56:22.361Z,2.00
2023-09-03T00:57:26.347Z,2.00
2023-09-03T00:58:30.218Z,1.50
2023-09-03T00:59:34.287Z,1.50
2023-09-03T01:00:38.662Z,2.50
2023-09-03T01:01:43.094Z,1.00
2023-09-03T01:02:47.302Z,1.00
2023-09-03T01:03:51.578Z,1.75
2023-09-03T01:04:55.893Z,2.00
2023-09-03T01:06:00.100Z,1.00
2023-09-03T01:07:04.412Z,1.00
2023-09-03T01:08:08.610Z,1.00
2023-09-03T01:09:12.828Z,1.00
2023-09-03T01:10:17.053Z,1.75
2023-09-03T01:11:21.132Z,2.00
2023-09-03T01:12:25.336Z,2.00
2023-09-03T01:13:29.744Z,1.50
2023-09-03T01:14:34.184Z,1.00
2023-09-03T01:15:38.753Z,0.50
2023-09-03T01:16:43.388Z,1.50
2023-09-03T01:17:47.785Z,2.00
2023-09-03T01:18:52.212Z,1.75
2023-09-03T01:19:56.550Z,1.00
2023-09-03T01:21:01.149Z,0.00
2023-09-03T01:22:05.777Z,0.50
2023-09-03T01:23:10.359Z,0.75
2023-09-03T01:24:14.880Z,1.25
2023-09-03T01:25:19.392Z,0.50
2023-09-03T01:26:23.698Z,1.25
2023-09-03T01:27:28.139Z,1.00
2023-09-03T01:28:32.824Z,0.50
2023-09-03T01:29:37.442Z,0.00
2023-09-03T01:30:42.054Z,1.00
2023-09-03T01:31:46.393Z,1.00
2023-09-03T01:32:51.027Z,0.75
2023-09-03T01:33:55.370Z,1.00
2023-09-03T01:34:59.843Z,1.00
2023-09-03T01:36:04.323Z,1.50
2023-09-03T01:37:08.943Z,1.50
2023-09-03T01:38:13.165Z,1.00
2023-09-03T01:39:17.444Z,1.00
2023-09-03T01:40:21.959Z,1.00
2023-09-03T01:41:26.061Z,1.00
2023-09-03T01:42:30.673Z,1.50
2023-09-03T01:43:35.348Z,1.25
2023-09-03T01:44:39.498Z,1.50
2023-09-03T01:45:43.803Z,1.00
2023-09-03T01:46:48.032Z,0.75
2023-09-03T01:47:52.076Z,0.75
2023-09-03T01:48:56.223Z,1.25
2023-09-03T01:50:00.420Z,1.50
2023-09-03T01:51:04.632Z,1.00
2023-09-03T01:52:08.729Z,1.50
2023-09-03T01:53:12.943Z,1.00
2023-09-03T01:54:17.157Z,1.50
2023-09-03T01:55:21.344Z,1.25
2023-09-03T01:56:25.809Z,1.00
2023-09-03T01:57:30.169Z,1.00
2023-09-03T01:58:34.485Z,1.00
2023-09-03T01:59:38.682Z,0.50
2023-09-03T02:00:42.805Z,1.50
2023-09-03T02:01:46.900Z,1.00
2023-09-03T02:02:51.007Z,0.50
2023-09-03T02:03:55.308Z,0.00
2023-09-03T02:04:59.370Z,1.50
2023-09-03T02:06:03.712Z,1.25
2023-09-03T02:07:07.710Z,1.00
2023-09-03T02:08:11.714Z,0.50
2023-09-03T02:09:16.030Z,1.50
2023-09-03T02:10:20.551Z,1.75
2023-09-03T02:11:25.048Z,0.00
2023-09-03T02:12:29.260Z,0.00
2023-09-03T02:13:33.565Z,0.00
2023-09-03T02:14:37.460Z,1.00
2023-09-03T02:15:41.468Z,0.00
2023-09-03T02:16:45.934Z,0.75
2023-09-03T02:17:50.215Z,0.50
2023-09-03T02:18:54.517Z,0.00
2023-09-03T02:19:58.606Z,0.50
2023-09-03T02:21:03.008Z,0.00
2023-09-03T02:22:07.218Z,0.00
2023-09-03T02:23:11.323Z,0.00
2023-09-03T02:24:15.522Z,0.50
2023-09-03T02:25:19.510Z,1.00
2023-09-03T02:26:23.590Z,0.75
2023-09-03T02:27:27.642Z,1.00
2023-09-03T02:28:31.874Z,1.50
2023-09-03T02:29:35.943Z,0.50
2023-09-03T02:30:40.383Z,0.50
2023-09-03T02:31:44.614Z,0.00
2023-09-03T02:32:50.238Z,0.00
2023-09-03T02:33:54.508Z,0.00
2023-09-03T02:34:58.560Z,0.00
2023-09-03T02:36:02.710Z,0.00
2023-09-03T02:37:07.017Z,0.00
2023-09-03T02:38:11.436Z,1.00
2023-09-03T02:39:15.631Z,1.50
2023-09-03T02:40:20.194Z,2.00
2023-09-03T02:41:24.400Z,1.50
2023-09-03T02:42:28.462Z,1.00
2023-09-03T02:43:32.664Z,2.00
2023-09-03T02:44:36.974Z,0.50
2023-09-03T02:45:41.588Z,0.00
2023-09-03T02:46:46.308Z,0.50
2023-09-03T02:47:52.634Z,1.00
2023-09-03T02:48:56.949Z,1.00
2023-09-03T02:50:01.500Z,1.00
2023-09-03T02:51:05.995Z,0.75
2023-09-03T02:52:10.721Z,1.00
2023-09-03T02:53:15.429Z,2.00
2023-09-03T02:54:19.744Z,5.00
2023-09-03T02:55:24.563Z,3.00
2023-09-03T02:56:28.767Z,0.50
2023-09-03T02:57:45.603Z,1.50
2023-09-03T02:58:49.871Z,1.25
2023-09-03T02:59:54.233Z,1.00
2023-09-03T03:00:58.601Z,2.50
2023-09-03T03:02:03.001Z,1.75
2023-09-03T03:03:07.243Z,1.50
2023-09-03T03:04:11.723Z,1.50
2023-09-03T03:05:15.989Z,1.00
2023-09-03T03:06:20.235Z,2.00
2023-09-03T03:07:24.648Z,0.50
2023-09-03T03:08:28.749Z,0.50
2023-09-03T03:09:33.267Z,0.75
2023-09-03T03:10:37.472Z,0.50
2023-09-03T03:11:41.573Z,0.50
2023-09-03T03:12:45.990Z,1.50
2023-09-03T03:13:51.007Z,2.75
2023-09-03T03:14:55.420Z,1.50
2023-09-03T03:15:59.758Z,1.50
2023-09-03T03:17:03.753Z,0.50
2023-09-03T03:18:07.832Z,0.50
2023-09-03T03:19:15.109Z,1.00
2023-09-03T03:20:19.726Z,0.50
2023-09-03T03:21:24.548Z,0.75
2023-09-03T03:22:29.184Z,0.00
2023-09-03T03:23:33.674Z,0.50
2023-09-03T03:24:38.289Z,1.00
2023-09-03T03:25:42.943Z,0.50
2023-09-03T03:26:47.522Z,1.00
2023-09-03T03:27:52.239Z,2.25
2023-09-03T03:28:56.439Z,1.25
2023-09-03T03:30:00.959Z,1.00
2023-09-03T03:31:05.909Z,2.50
2023-09-03T03:32:10.404Z,2.00
2023-09-03T03:33:17.844Z,2.50
2023-09-03T03:34:22.594Z,7.00
2023-09-03T03:35:27.212Z,5.75
2023-09-03T03:36:31.528Z,3.50
2023-09-03T03:37:36.128Z,5.25
2023-09-03T03:38:40.340Z,4.50
2023-09-03T03:39:44.754Z,2.00
2023-09-03T03:40:48.956Z,1.50
2023-09-03T03:41:53.247Z,2.50
2023-09-03T03:42:57.700Z,5.00
2023-09-03T03:44:01.984Z,4.75
2023-09-03T03:45:05.987Z,2.00
2023-09-03T03:46:10.199Z,0.50
2023-09-03T03:47:14.601Z,0.50
2023-09-03T03:48:19.098Z,0.00
2023-09-03T03:49:24.037Z,0.50
2023-09-03T03:50:30.414Z,0.25
2023-09-03T03:51:34.597Z,0.00
2023-09-03T03:52:38.702Z,1.00
2023-09-03T03:53:42.908Z,0.75
2023-09-03T03:54:47.113Z,0.00
2023-09-03T03:55:51.426Z,0.00
2023-09-03T03:56:55.845Z,0.00
2023-09-03T03:58:00.139Z,0.00
2023-09-03T03:59:04.886Z,0.00
2023-09-03T04:00:09.060Z,0.00
2023-09-03T04:01:13.249Z,0.00
2023-09-03T04:02:17.275Z,0.00
2023-09-03T04:03:21.362Z,0.00
2023-09-03T04:04:25.582Z,0.00
2023-09-03T04:05:30.018Z,0.00
2023-09-03T04:06:35.224Z,0.00
2023-09-03T04:07:39.339Z,0.00
2023-09-03T04:08:43.533Z,0.00
2023-09-03T04:09:47.436Z,0.00
2023-09-03T04:10:53.169Z,0.00
2023-09-03T04:11:56.821Z,0.00
2023-09-03T04:13:01.175Z,0.00
2023-09-03T04:14:06.012Z,0.00
2023-09-03T04:15:10.113Z,0.00
2023-09-03T04:16:14.721Z,0.00
2023-09-03T04:17:18.855Z,0.00
2023-09-03T04:18:23.378Z,0.00
2023-09-03T04:19:27.742Z,0.00
2023-09-03T04:20:32.250Z,0.00
2023-09-03T04:21:36.520Z,0.00
2023-09-03T04:22:40.666Z,0.00
2023-09-03T04:23:44.898Z,0.00
2023-09-03T04:24:49.022Z,0.00
2023-09-03T04:25:53.589Z,0.00
2023-09-03T04:26:57.915Z,0.00
2023-09-03T04:28:02.416Z,0.00
2023-09-03T04:29:07.135Z,0.00
2023-09-03T04:30:11.754Z,0.00
2023-09-03T04:31:16.026Z,0.50
2023-09-03T04:32:20.371Z,0.50
2023-09-03T04:33:24.535Z,0.00
2023-09-03T04:34:28.895Z,0.00
2023-09-03T04:35:33.190Z,0.00
2023-09-03T04:36:37.515Z,0.00
2023-09-03T04:37:41.830Z,0.00
2023-09-03T04:38:45.775Z,0.00
2023-09-03T04:39:49.932Z,0.50
2023-09-03T04:40:54.253Z,0.50
2023-09-03T04:41:58.322Z,0.00
2023-09-03T04:43:02.626Z,0.00
2023-09-03T04:44:06.841Z,0.00
2023-09-03T04:45:11.358Z,0.00
2023-09-03T04:46:15.602Z,0.00
2023-09-03T04:47:20.066Z,0.00
2023-09-03T04:48:24.504Z,0.00
2023-09-03T04:49:28.650Z,0.00
2023-09-03T04:50:33.987Z,0.00
2023-09-03T04:51:38.109Z,0.00
2023-09-03T04:52:42.414Z,0.00
2023-09-03T04:53:46.630Z,0.00
2023-09-03T04:54:51.043Z,0.00
2023-09-03T04:55:55.250Z,0.25
2023-09-03T04:56:59.483Z,0.50
2023-09-03T04:58:03.682Z,0.00
2023-09-03T04:59:07.660Z,0.00
2023-09-03T05:00:11.990Z,0.00
2023-09-03T05:01:16.325Z,0.00
2023-09-03T05:02:20.684Z,0.00
2023-09-03T05:03:24.796Z,0.50
2023-09-03T05:04:28.808Z,0.00
2023-09-03T05:05:33.001Z,0.00
2023-09-03T05:06:37.006Z,0.00
2023-09-03T05:07:41.207Z,0.00
2023-09-03T05:08:45.522Z,0.00
2023-09-03T05:09:49.728Z,0.00
2023-09-03T05:10:53.832Z,0.00
2023-09-03T05:11:58.129Z,0.00
2023-09-03T05:13:02.358Z,0.00
2023-09-03T05:14:06.640Z,0.00
2023-09-03T05:15:10.768Z,0.00
2023-09-03T05:16:14.773Z,0.00
2023-09-03T05:17:19.056Z,0.00
2023-09-03T05:18:23.552Z,0.00
2023-09-03T05:19:27.986Z,0.00
2023-09-03T05:20:32.188Z,0.00
2023-09-03T05:21:36.277Z,0.00
2023-09-03T05:22:41.846Z,0.00
2023-09-03T05:23:46.236Z,0.00
2023-09-03T05:24:50.852Z,0.00
2023-09-03T05:25:55.270Z,0.00
2023-09-03T05:26:59.571Z,0.00
2023-09-03T05:28:04.090Z,0.00
2023-09-03T05:29:08.391Z,0.00
2023-09-03T05:30:12.704Z,0.00
2023-09-03T05:31:17.133Z,0.00
2023-09-03T05:32:21.392Z,0.00
2023-09-03T05:33:25.599Z,0.00
2023-09-03T05:34:29.843Z,0.00
2023-09-03T05:35:34.344Z,0.00
2023-09-03T05:36:38.760Z,0.00
2023-09-03T05:37:43.164Z,0.00
2023-09-03T05:38:47.273Z,0.00
2023-09-03T05:39:51.683Z,0.00
2023-09-03T05:40:56.093Z,0.00
2023-09-03T05:42:00.225Z,0.00
2023-09-03T05:43:04.712Z,0.00
2023-09-03T05:44:08.924Z,0.00
2023-09-03T05:45:13.219Z,0.00
2023-09-03T05:46:17.687Z,0.00
2023-09-03T05:47:21.765Z,0.00
2023-09-03T05:48:25.795Z,0.00
2023-09-03T05:49:29.758Z,0.00
2023-09-03T05:50:33.942Z,0.50
2023-09-03T05:51:37.954Z,0.00
2023-09-03T05:52:42.050Z,0.00
2023-09-03T05:53:46.356Z,0.00
2023-09-03T05:54:50.470Z,0.00
2023-09-03T05:55:54.801Z,0.00
2023-09-03T05:56:58.883Z,0.00
2023-09-03T05:58:03.183Z,0.00
2023-09-03T05:59:07.385Z,0.00
2023-09-03T06:00:11.595Z,0.00
2023-09-03T06:01:16.065Z,0.00
2023-09-03T06:02:20.526Z,0.00
2023-09-03T06:03:25.073Z,0.00
2023-09-03T06:04:29.251Z,0.00
2023-09-03T06:05:33.912Z,0.00
2023-09-03T06:06:38.166Z,0.00
2023-09-03T06:07:42.793Z,0.00
2023-09-03T06:08:47.187Z,0.00
2023-09-03T06:09:51.505Z,0.00
2023-09-03T06:10:56.129Z,0.00
2023-09-03T06:12:00.315Z,0.00
2023-09-03T06:13:04.737Z,0.00
2023-09-03T06:14:09.239Z,0.00
2023-09-03T06:15:13.647Z,0.00
2023-09-03T06:16:18.098Z,0.00
2023-09-03T06:17:22.702Z,0.00
2023-09-03T06:18:27.731Z,0.00
2023-09-03T06:19:32.217Z,0.00
2023-09-03T06:20:36.830Z,0.00
2023-09-03T06:21:41.161Z,0.00
2023-09-03T06:22:45.654Z,0.00
2023-09-03T06:23:49.866Z,0.00
2023-09-03T06:24:54.067Z,0.00
2023-09-03T06:25:58.577Z,0.00
2023-09-03T06:27:02.784Z,0.00
2023-09-03T06:28:07.195Z,0.00
2023-09-03T06:29:11.393Z,0.00
2023-09-03T06:30:15.701Z,0.00
2023-09-03T06:31:19.730Z,0.00
2023-09-03T06:32:23.837Z,0.00
2023-09-03T06:33:27.918Z,0.00
2023-09-03T06:34:32.038Z,0.00
2023-09-03T06:35:36.122Z,0.00
2023-09-03T06:36:41.824Z,0.00
2023-09-03T06:37:45.396Z,0.00
2023-09-03T06:38:49.358Z,0.00
2023-09-03T06:39:53.672Z,0.00
2023-09-03T06:40:57.766Z,0.00
2023-09-03T06:42:01.620Z,0.00
2023-09-03T06:43:05.667Z,0.00
2023-09-03T06:44:09.982Z,0.00
2023-09-03T06:45:14.076Z,0.50
2023-09-03T06:46:18.223Z,0.50
2023-09-03T06:47:22.293Z,0.00
2023-09-03T06:48:26.586Z,0.00
2023-09-03T06:49:30.596Z,0.00
2023-09-03T06:50:34.598Z,0.00
2023-09-03T06:51:38.802Z,0.00
2023-09-03T06:52:42.923Z,0.00
2023-09-03T06:53:47.328Z,0.00
2023-09-03T06:54:51.853Z,0.00
2023-09-03T06:55:56.336Z,0.00
2023-09-03T06:57:01.004Z,0.00
2023-09-03T06:58:05.187Z,0.00
2023-09-03T06:59:10.944Z,0.00
2023-09-03T07:00:14.905Z,0.00
2023-09-03T07:01:19.357Z,0.00
2023-09-03T07:02:23.631Z,0.00
2023-09-03T07:03:27.997Z,0.00
2023-09-03T07:04:32.450Z,0.00
2023-09-03T07:05:36.953Z,0.00
2023-09-03T07:06:41.164Z,0.00
2023-09-03T07:07:45.280Z,0.00
2023-09-03T07:08:49.761Z,0.50
2023-09-03T07:09:54.003Z,0.00
2023-09-03T07:10:58.401Z,0.00
2023-09-03T07:12:02.958Z,0.00
2023-09-03T07:13:07.529Z,0.00
2023-09-03T07:14:11.827Z,0.00
2023-09-03T07:15:16.039Z,0.00
2023-09-03T07:16:20.543Z,0.00
2023-09-03T07:17:25.117Z,0.00
2023-09-03T07:18:29.456Z,0.00
2023-09-03T07:19:33.779Z,0.00
2023-09-03T07:20:38.089Z,0.00
2023-09-03T07:21:42.294Z,0.00
2023-09-03T07:22:46.605Z,0.50
2023-09-03T07:23:51.038Z,0.50
2023-09-03T07:24:55.355Z,0.00
2023-09-03T07:25:59.737Z,0.00
2023-09-03T07:27:04.120Z,0.50
2023-09-03T07:28:08.868Z,0.50
2023-09-03T07:29:13.378Z,0.00
2023-09-03T07:30:17.999Z,0.00
2023-09-03T07:31:22.229Z,0.50
2023-09-03T07:32:26.534Z,0.00
2023-09-03T07:33:31.592Z,0.00
2023-09-03T07:34:35.837Z,0.00
2023-09-03T07:35:40.045Z,0.00
2023-09-03T07:36:44.287Z,0.00
2023-09-03T07:37:48.355Z,0.25
2023-09-03T07:38:52.279Z,0.00
2023-09-03T07:39:56.317Z,0.75
2023-09-03T07:41:00.256Z,0.50
2023-09-03T07:42:04.367Z,0.75
2023-09-03T07:43:08.495Z,0.50
2023-09-03T07:44:12.500Z,1.50
2023-09-03T07:45:16.572Z,1.25
2023-09-03T07:46:20.595Z,1.00
2023-09-03T07:47:26.154Z,0.50
2023-09-03T07:48:30.009Z,0.00
2023-09-03T07:49:34.107Z,0.50
2023-09-03T07:50:38.012Z,0.50
2023-09-03T07:51:42.114Z,0.00
2023-09-03T07:52:46.220Z,0.50
2023-09-03T07:53:50.336Z,0.50
2023-09-03T07:54:54.429Z,0.00
2023-09-03T07:55:58.549Z,0.00
2023-09-03T07:57:02.539Z,1.50
2023-09-03T07:58:06.777Z,1.00
2023-09-03T07:59:10.843Z,1.50
2023-09-03T08:00:15.066Z,1.00
2023-09-03T08:01:19.372Z,1.00
2023-09-03T08:02:23.553Z,1.50
2023-09-03T08:03:27.641Z,0.50
2023-09-03T08:04:31.974Z,0.25
2023-09-03T08:05:36.071Z,1.50
2023-09-03T08:06:40.182Z,2.00
2023-09-03T08:07:45.001Z,1.00
2023-09-03T08:08:49.208Z,1.00
2023-09-03T08:09:53.296Z,0.50
2023-09-03T08:10:57.319Z,0.50
2023-09-03T08:12:01.611Z,1.50
2023-09-03T08:13:06.227Z,1.25
2023-09-03T08:14:10.558Z,1.00
2023-09-03T08:15:15.050Z,1.00
2023-09-03T08:16:19.401Z,1.00
2023-09-03T08:17:23.797Z,1.00
2023-09-03T08:18:28.095Z,1.00
2023-09-03T08:19:32.223Z,1.00
2023-09-03T08:20:36.606Z,1.00
2023-09-03T08:21:41.003Z,1.50
2023-09-03T08:22:45.313Z,1.50
2023-09-03T08:23:49.776Z,2.00
2023-09-03T08:24:53.852Z,2.25
2023-09-03T08:25:59.167Z,1.75
2023-09-03T08:27:03.771Z,2.00
2023-09-03T08:28:08.046Z,3.00
2023-09-03T08:29:12.387Z,1.50
2023-09-03T08:30:16.358Z,1.50
2023-09-03T08:31:20.606Z,1.50
2023-09-03T08:32:24.739Z,1.00
2023-09-03T08:33:29.004Z,2.00
2023-09-03T08:34:33.318Z,1.25
2023-09-03T08:35:37.447Z,0.50
2023-09-03T08:36:41.522Z,1.00
2023-09-03T08:37:46.000Z,0.00
2023-09-03T08:38:49.962Z,1.00
2023-09-03T08:39:54.141Z,1.00
2023-09-03T08:40:58.343Z,0.50
2023-09-03T08:42:02.342Z,0.50
2023-09-03T08:43:06.870Z,1.00
2023-09-03T08:44:10.977Z,0.25
2023-09-03T08:45:15.577Z,1.00
2023-09-03T08:46:20.040Z,1.00
2023-09-03T08:47:24.308Z,1.00
2023-09-03T08:48:28.613Z,0.25
2023-09-03T08:49:33.024Z,1.00
2023-09-03T08:50:37.421Z,0.50
2023-09-03T08:51:41.855Z,0.50
2023-09-03T08:52:46.147Z,0.25
2023-09-03T08:53:50.512Z,0.50
2023-09-03T08:54:54.684Z,0.75
2023-09-03T08:55:58.869Z,0.50
2023-09-03T08:57:03.270Z,0.75
2023-09-03T08:58:07.489Z,0.50
2023-09-03T08:59:12.199Z,0.50
2023-09-03T09:00:16.613Z,1.00
2023-09-03T09:01:21.148Z,1.00
2023-09-03T09:02:25.408Z,0.00
2023-09-03T09:03:29.735Z,0.50
2023-09-03T09:04:34.262Z,1.00
2023-09-03T09:05:38.499Z,1.00
2023-09-03T09:06:42.767Z,0.50
2023-09-03T09:07:46.924Z,0.50
2023-09-03T09:08:51.186Z,1.00
2023-09-03T09:09:55.486Z,1.50
2023-09-03T09:11:00.618Z,0.75
2023-09-03T09:12:04.741Z,0.50
2023-09-03T09:13:09.050Z,1.00
2023-09-03T09:14:13.446Z,0.50
2023-09-03T09:15:17.536Z,0.00
2023-09-03T09:16:21.724Z,0.25
2023-09-03T09:17:25.898Z,1.00
2023-09-03T09:18:29.847Z,1.50
2023-09-03T09:19:33.858Z,0.50
2023-09-03T09:20:38.086Z,0.50
2023-09-03T09:21:42.065Z,1.00
2023-09-03T09:22:46.164Z,1.50
2023-09-03T09:23:50.093Z,1.00
2023-09-03T09:24:54.167Z,1.00
2023-09-03T09:25:58.273Z,0.75
2023-09-03T09:27:02.369Z,1.00
2023-09-03T09:28:06.786Z,0.50
2023-09-03T09:29:10.995Z,0.50
2023-09-03T09:30:15.415Z,0.50
2023-09-03T09:31:19.664Z,1.00
2023-09-03T09:32:23.914Z,1.00
2023-09-03T09:33:28.634Z,0.75
2023-09-03T09:34:33.451Z,1.00
2023-09-03T09:35:37.581Z,1.00
2023-09-03T09:36:41.968Z,0.50
2023-09-03T09:37:46.173Z,0.50
2023-09-03T09:38:50.493Z,0.75
2023-09-03T09:39:54.685Z,0.75
2023-09-03T09:40:58.889Z,1.00
2023-09-03T09:42:03.306Z,0.00
2023-09-03T09:43:07.511Z,1.00
2023-09-03T09:44:11.877Z,0.50
2023-09-03T09:45:16.123Z,0.75
2023-09-03T09:46:20.586Z,1.50
2023-09-03T09:47:24.855Z,1.25
2023-09-03T09:48:29.357Z,0.50
2023-09-03T09:49:33.665Z,0.50
2023-09-03T09:50:37.864Z,1.00
2023-09-03T09:51:42.290Z,1.25
2023-09-03T09:52:46.515Z,0.00
2023-09-03T09:53:51.007Z,0.25
2023-09-03T09:54:55.410Z,0.75
2023-09-03T09:55:59.822Z,1.00
2023-09-03T09:57:04.125Z,1.00
2023-09-03T09:58:08.957Z,1.00
2023-09-03T09:59:13.471Z,1.50
2023-09-03T10:00:17.876Z,1.50
2023-09-03T10:01:22.205Z,1.25
2023-09-03T10:02:26.641Z,1.00
2023-09-03T10:03:31.304Z,1.00
2023-09-03T10:04:35.615Z,1.00
2023-09-03T10:05:39.943Z,0.50
2023-09-03T10:06:44.345Z,1.50
2023-09-03T10:07:48.750Z,1.00
2023-09-03T10:08:53.137Z,0.75
2023-09-03T10:09:57.038Z,1.50
2023-09-03T10:11:01.067Z,1.50
2023-09-03T10:12:05.275Z,1.25
2023-09-03T10:13:09.268Z,0.75
2023-09-03T10:14:13.268Z,0.50
2023-09-03T10:15:17.512Z,1.50
2023-09-03T10:16:21.850Z,0.50
2023-09-03T10:17:25.781Z,0.50
2023-09-03T10:18:30.088Z,0.50
2023-09-03T10:19:34.295Z,1.00
2023-09-03T10:20:38.645Z,1.50
2023-09-03T10:21:54.193Z,0.50
2023-09-03T10:22:47.730Z,0.75
2023-09-03T10:23:52.046Z,2.00
2023-09-03T10:24:56.374Z,1.50
2023-09-03T10:26:05.605Z,1.00
2023-09-03T10:27:08.648Z,1.25
2023-09-03T10:28:12.548Z,1.00
2023-09-03T10:29:16.763Z,1.00
2023-09-03T10:30:20.857Z,0.00
2023-09-03T10:31:24.990Z,0.50
2023-09-03T10:32:28.982Z,0.00
2023-09-03T10:33:33.168Z,0.50
2023-09-03T10:34:37.419Z,1.00
2023-09-03T10:35:41.617Z,0.00
2023-09-03T10:36:45.684Z,0.25
2023-09-03T10:37:49.789Z,0.50
2023-09-03T10:38:53.797Z,1.00
2023-09-03T10:39:57.786Z,0.50
2023-09-03T10:41:01.893Z,0.50
2023-09-03T10:42:05.908Z,0.75
2023-09-03T10:43:10.000Z,1.50
2023-09-03T10:44:14.200Z,0.25
2023-09-03T10:45:18.515Z,1.00
2023-09-03T10:46:22.762Z,1.00
2023-09-03T10:47:26.863Z,1.00
2023-09-03T10:48:30.938Z,1.75
2023-09-03T10:49:35.438Z,1.00
2023-09-03T10:50:39.617Z,1.00
2023-09-03T10:51:43.998Z,1.25
2023-09-03T10:52:48.263Z,2.00
2023-09-03T10:53:52.474Z,2.50
2023-09-03T10:54:57.086Z,3.00
2023-09-03T10:56:01.594Z,2.50
2023-09-03T10:57:05.823Z,3.00
2023-09-03T10:58:10.319Z,3.50
2023-09-03T10:59:14.628Z,3.00
2023-09-03T11:00:18.932Z,3.00
2023-09-03T11:01:23.301Z,2.50
2023-09-03T11:02:27.608Z,2.25
2023-09-03T11:03:31.914Z,3.00
2023-09-03T11:04:36.191Z,2.50
2023-09-03T11:05:40.385Z,3.00
2023-09-03T11:06:44.580Z,2.75
2023-09-03T11:07:48.579Z,3.50
2023-09-03T11:08:52.575Z,3.50
2023-09-03T11:09:56.895Z,4.50
2023-09-03T11:11:01.204Z,4.75
2023-09-03T11:12:05.501Z,4.00
2023-09-03T11:13:11.268Z,5.00
2023-09-03T11:14:14.556Z,5.00
2023-09-03T11:15:18.468Z,5.00
2023-09-03T11:16:22.441Z,5.00
2023-09-03T11:17:26.439Z,5.00
2023-09-03T11:18:30.567Z,5.00
2023-09-03T11:19:38.229Z,6.50
2023-09-03T11:20:50.674Z,7.00
2023-09-03T11:21:47.867Z,6.00
2023-09-03T11:22:52.190Z,7.00
2023-09-03T11:23:56.479Z,6.50
2023-09-03T11:25:00.818Z,6.50
2023-09-03T11:26:05.110Z,6.75
2023-09-03T11:27:09.105Z,6.00
2023-09-03T11:28:13.337Z,5.25
2023-09-03T11:29:17.405Z,6.00
2023-09-03T11:30:21.731Z,5.50
2023-09-03T11:31:26.266Z,5.00
2023-09-03T11:32:30.674Z,4.50
2023-09-03T11:33:34.855Z,4.50
2023-09-03T11:34:38.978Z,5.50
2023-09-03T11:35:43.262Z,5.50
2023-09-03T11:36:47.480Z,5.00
2023-09-03T11:37:51.695Z,4.00
2023-09-03T11:38:55.858Z,5.00
2023-09-03T11:40:00.120Z,6.00
2023-09-03T11:41:04.615Z,4.50
2023-09-03T11:42:09.306Z,6.00
2023-09-03T11:43:13.517Z,5.25
2023-09-03T11:44:17.765Z,6.50
2023-09-03T11:45:21.742Z,6.25
2023-09-03T11:46:25.808Z,5.00
2023-09-03T11:47:29.676Z,7.00
2023-09-03T11:48:33.845Z,8.00
2023-09-03T11:49:38.042Z,6.25
2023-09-03T11:50:42.178Z,5.00
2023-09-03T11:51:46.138Z,5.25
2023-09-03T11:52:50.353Z,6.25
2023-09-03T11:53:54.458Z,5.00
2023-09-03T11:54:58.560Z,4.50
2023-09-03T11:56:02.653Z,5.75
2023-09-03T11:57:06.563Z,5.50
2023-09-03T11:58:10.608Z,5.50
2023-09-03T11:59:14.966Z,5.00
2023-09-03T12:00:19.069Z,5.25
2023-09-03T12:01:23.211Z,5.50
2023-09-03T12:02:27.308Z,4.50
2023-09-03T12:03:31.498Z,5.00
2023-09-03T12:04:35.695Z,5.00
2023-09-03T12:05:39.786Z,6.25
2023-09-03T12:06:43.893Z,5.25
2023-09-03T12:07:48.100Z,6.00
2023-09-03T12:08:52.102Z,6.25
2023-09-03T12:09:56.205Z,6.00
2023-09-03T12:11:00.613Z,7.00
2023-09-03T12:12:04.787Z,5.75
2023-09-03T12:13:08.961Z,6.50
2023-09-03T12:14:13.236Z,6.00
2023-09-03T12:15:17.301Z,6.50
2023-09-03T12:16:21.433Z,6.50
2023-09-03T12:17:25.336Z,5.25
2023-09-03T12:18:29.346Z,4.50
2023-09-03T12:19:33.542Z,6.00
2023-09-03T12:20:37.650Z,6.00
2023-09-03T12:21:41.548Z,5.50
2023-09-03T12:22:45.642Z,4.50
2023-09-03T12:23:49.768Z,4.50
2023-09-03T12:24:53.766Z,5.50
2023-09-03T12:25:57.856Z,4.50
2023-09-03T12:27:01.873Z,6.25
2023-09-03T12:28:05.985Z,7.00
2023-09-03T12:29:09.674Z,7.00
2023-09-03T12:30:13.662Z,7.00
2023-09-03T12:31:17.809Z,7.00
2023-09-03T12:32:21.878Z,6.00
2023-09-03T12:33:26.066Z,6.25
2023-09-03T12:34:30.382Z,6.75
2023-09-03T12:35:34.682Z,6.00
2023-09-03T12:36:38.888Z,6.50
2023-09-03T12:37:43.112Z,7.00
2023-09-03T12:38:47.506Z,6.75
2023-09-03T12:39:51.987Z,7.00
2023-09-03T12:40:56.235Z,6.00
2023-09-03T12:42:00.430Z,5.75
2023-09-03T12:43:04.737Z,6.75
2023-09-03T12:44:09.177Z,6.00
2023-09-03T12:45:13.664Z,6.00
2023-09-03T12:46:18.261Z,6.75
2023-09-03T12:47:22.509Z,6.00
2023-09-03T12:48:26.710Z,6.25
2023-09-03T12:49:30.958Z,6.00
2023-09-03T12:50:35.413Z,5.25
2023-09-03T12:51:39.921Z,5.00
2023-09-03T12:52:44.335Z,5.00
2023-09-03T12:53:48.960Z,5.75
2023-09-03T12:54:53.278Z,6.50
2023-09-03T12:55:57.675Z,6.00
2023-09-03T12:57:01.826Z,5.00
2023-09-03T12:58:05.998Z,6.50
2023-09-03T12:59:10.187Z,6.50
2023-09-03T13:00:14.522Z,5.50
2023-09-03T13:01:19.052Z,6.00
2023-09-03T13:02:23.215Z,5.50
2023-09-03T13:03:27.829Z,5.25
2023-09-03T13:04:32.355Z,6.25
2023-09-03T13:05:36.653Z,5.50
2023-09-03T13:06:40.894Z,4.75
2023-09-03T13:07:45.167Z,4.50
2023-09-03T13:08:49.266Z,5.50
2023-09-03T13:09:53.377Z,5.00
2023-09-03T13:10:57.369Z,5.25
2023-09-03T13:12:01.552Z,5.00
2023-09-03T13:13:05.576Z,4.25
2023-09-03T13:14:09.401Z,4.00
2023-09-03T13:15:13.420Z,4.25
2023-09-03T13:16:17.441Z,4.00
2023-09-03T13:17:21.396Z,4.25
2023-09-03T13:18:25.597Z,5.00
2023-09-03T13:19:29.561Z,4.50
2023-09-03T13:20:33.366Z,3.75
2023-09-03T13:21:37.496Z,4.00
2023-09-03T13:22:41.590Z,4.00
2023-09-03T13:23:45.605Z,4.25
2023-09-03T13:24:50.011Z,4.00
2023-09-03T13:25:54.235Z,4.75
2023-09-03T13:26:58.441Z,3.75
2023-09-03T13:28:02.290Z,4.50
2023-09-03T13:29:06.240Z,5.00
2023-09-03T13:30:18.198Z,5.00
2023-09-03T13:31:22.619Z,4.25
2023-09-03T13:32:26.635Z,4.50
2023-09-03T13:33:30.916Z,4.00
2023-09-03T13:34:35.019Z,4.50
2023-09-03T13:35:39.238Z,3.50
2023-09-03T13:36:43.479Z,3.50
2023-09-03T13:37:50.512Z,4.50
2023-09-03T13:38:54.823Z,4.00
2023-09-03T13:39:59.098Z,4.00
2023-09-03T13:41:03.242Z,4.00
2023-09-03T13:42:07.609Z,3.50
2023-09-03T13:43:11.851Z,4.00
2023-09-03T13:44:16.149Z,4.00
2023-09-03T13:45:20.603Z,4.00
2023-09-03T13:46:24.918Z,4.00
2023-09-03T13:47:29.227Z,3.50
2023-09-03T13:48:33.414Z,3.50
2023-09-03T13:49:37.690Z,4.00
2023-09-03T13:50:41.684Z,3.50
2023-09-03T13:51:46.007Z,3.00
2023-09-03T13:52:50.309Z,4.50
2023-09-03T13:53:54.564Z,4.50
2023-09-03T13:54:59.032Z,3.75
2023-09-03T13:56:03.283Z,3.50
2023-09-03T13:57:07.456Z,4.00
2023-09-03T13:58:12.055Z,3.50
2023-09-03T13:59:16.366Z,3.25
2023-09-03T14:00:20.666Z,4.50
2023-09-03T14:01:25.009Z,4.50
2023-09-03T14:02:29.377Z,4.25
2023-09-03T14:03:33.455Z,3.50
2023-09-03T14:04:37.647Z,3.00
2023-09-03T14:05:41.806Z,3.00
2023-09-03T14:06:45.819Z,4.00
2023-09-03T14:07:49.919Z,4.00
2023-09-03T14:08:53.925Z,3.00
2023-09-03T14:09:57.918Z,3.00
2023-09-03T14:11:02.162Z,3.00
2023-09-03T14:12:06.325Z,3.25
2023-09-03T14:13:10.528Z,3.50
2023-09-03T14:14:14.528Z,3.75
2023-09-03T14:15:18.639Z,3.50
2023-09-03T14:16:22.985Z,3.00